createdAt,value
2022-07-28T00:01:01.229Z,18.60
2022-07-28T00:03:28.963Z,18.47
2022-07-28T00:05:56.604Z,18.66
2022-07-28T00:08:24.220Z,18.53
2022-07-28T00:10:53.181Z,18.29
2022-07-28T00:13:20.825Z,18.43
2022-07-28T00:15:48.550Z,18.25
2022-07-28T00:18:16.280Z,18.49
2022-07-28T00:20:43.870Z,18.23
2022-07-28T00:23:11.718Z,18.17
2022-07-28T00:25:39.351Z,18.19
2022-07-28T00:28:08.445Z,18.22
2022-07-28T00:30:36.336Z,18.18
2022-07-28T00:33:04.628Z,18.26
2022-07-28T00:35:32.506Z,18.21
2022-07-28T00:38:01.423Z,18.16
2022-07-28T00:40:43.285Z,18.00
2022-07-28T00:43:12.292Z,18.01
2022-07-28T00:45:39.997Z,18.12
2022-07-28T00:48:07.689Z,18.08
2022-07-28T00:50:35.376Z,18.05
2022-07-28T00:53:02.964Z,18.11
2022-07-28T00:55:32.421Z,18.16
2022-07-28T00:58:21.314Z,17.98
2022-07-28T01:00:49.027Z,18.03
2022-07-28T01:03:16.713Z,18.03
2022-07-28T01:05:53.879Z,17.95
2022-07-28T01:08:30.801Z,17.91
2022-07-28T01:11:05.072Z,17.71
2022-07-28T01:13:43.758Z,17.77
2022-07-28T01:16:11.637Z,17.71
2022-07-28T01:18:44.571Z,17.54
2022-07-28T01:21:14.398Z,18.06
2022-07-28T01:23:55.172Z,17.84
2022-07-28T01:26:36.601Z,17.70
2022-07-28T01:29:22.374Z,17.79
2022-07-28T01:31:57.315Z,17.66
2022-07-28T01:34:30.672Z,17.59
2022-07-28T01:37:06.253Z,17.57
2022-07-28T01:39:36.867Z,17.68
2022-07-28T01:42:07.735Z,17.68
2022-07-28T01:44:39.297Z,17.83
2022-07-28T01:47:09.291Z,17.71
2022-07-28T01:49:38.823Z,17.79
2022-07-28T01:52:10.187Z,17.60
2022-07-28T01:54:41.391Z,17.72
2022-07-28T01:57:14.545Z,17.54
2022-07-28T01:59:43.676Z,17.78
2022-07-28T02:02:14.352Z,17.61
2022-07-28T02:04:43.617Z,17.67
2022-07-28T02:07:13.385Z,17.40
2022-07-28T02:09:43.374Z,17.46
2022-07-28T02:12:13.626Z,17.53
2022-07-28T02:14:42.410Z,17.35
2022-07-28T02:17:13.863Z,17.42
2022-07-28T02:19:45.851Z,17.31
2022-07-28T02:22:15.060Z,17.25
2022-07-28T02:24:45.995Z,17.15
2022-07-28T02:27:20.337Z,17.27
2022-07-28T02:29:53.867Z,17.41
2022-07-28T02:32:30.172Z,17.30
2022-07-28T02:35:05.368Z,17.32
2022-07-28T02:37:37.339Z,17.34
2022-07-28T02:40:06.965Z,17.37
2022-07-28T02:42:37.535Z,17.31
2022-07-28T02:45:09.302Z,17.47
2022-07-28T02:47:45.029Z,17.22
2022-07-28T02:50:15.276Z,17.08
2022-07-28T02:52:45.615Z,17.22
2022-07-28T02:55:16.668Z,17.32
2022-07-28T02:57:45.260Z,17.25
2022-07-28T03:00:14.464Z,17.10
2022-07-28T03:02:46.753Z,17.24
2022-07-28T03:05:16.039Z,17.45
2022-07-28T03:07:50.459Z,17.15
2022-07-28T03:10:32.916Z,16.96
2022-07-28T03:13:02.843Z,17.16
2022-07-28T03:15:31.146Z,17.11
2022-07-28T03:18:00.388Z,16.87
2022-07-28T03:20:28.387Z,16.92
2022-07-28T03:22:56.309Z,17.07
2022-07-28T03:25:40.537Z,16.89
2022-07-28T03:28:11.361Z,16.88
2022-07-28T03:30:42.987Z,17.13
2022-07-28T03:33:12.830Z,17.15
2022-07-28T03:35:44.781Z,16.93
2022-07-28T03:38:17.757Z,16.86
2022-07-28T03:40:47.362Z,16.88
2022-07-28T03:43:17.624Z,17.07
2022-07-28T03:45:47.735Z,17.08
2022-07-28T03:48:16.965Z,17.09
2022-07-28T03:50:44.514Z,16.95
2022-07-28T03:53:19.043Z,17.05
2022-07-28T03:55:50.568Z,17.07
2022-07-28T03:58:18.308Z,16.99
2022-07-28T04:00:45.874Z,17.02
2022-07-28T04:03:35.913Z,17.14
2022-07-28T04:06:03.183Z,17.10
2022-07-28T04:08:30.796Z,16.95
2022-07-28T04:10:58.474Z,17.36
2022-07-28T04:13:26.094Z,17.56
2022-07-28T04:15:53.782Z,17.27
2022-07-28T04:18:21.378Z,17.49
2022-07-28T04:20:49.136Z,17.31
2022-07-28T04:23:19.609Z,17.48
2022-07-28T04:25:47.387Z,17.28
2022-07-28T04:28:15.493Z,17.22
2022-07-28T04:30:43.966Z,17.09
2022-07-28T04:33:12.135Z,17.19
2022-07-28T04:35:39.673Z,17.02
2022-07-28T04:38:07.755Z,16.96
2022-07-28T04:40:36.716Z,17.14
2022-07-28T04:43:04.695Z,17.13
2022-07-28T04:45:32.518Z,17.21
2022-07-28T04:48:00.418Z,17.25
2022-07-28T04:50:28.010Z,17.38
2022-07-28T04:52:55.619Z,17.09
2022-07-28T04:55:23.284Z,17.03
2022-07-28T04:57:52.452Z,17.02
2022-07-28T05:00:22.118Z,17.34
2022-07-28T05:02:51.586Z,17.17
2022-07-28T05:05:19.233Z,17.44
2022-07-28T05:07:46.787Z,17.40
2022-07-28T05:10:14.367Z,17.26
2022-07-28T05:12:42.297Z,17.29
2022-07-28T05:15:11.640Z,17.09
2022-07-28T05:17:39.644Z,17.44
2022-07-28T05:20:08.931Z,17.70
2022-07-28T05:22:44.149Z,17.87
2022-07-28T05:25:16.509Z,18.13
2022-07-28T05:27:44.307Z,17.89
2022-07-28T05:30:14.499Z,18.29
2022-07-28T05:32:42.765Z,18.64
2022-07-28T05:35:11.062Z,18.85
2022-07-28T05:37:39.146Z,19.09
2022-07-28T05:40:13.611Z,18.94
2022-07-28T05:42:41.755Z,18.96
2022-07-28T05:45:16.659Z,18.85
2022-07-28T05:47:47.934Z,19.02
2022-07-28T05:50:16.166Z,19.09
2022-07-28T05:52:43.909Z,19.55
2022-07-28T05:55:12.176Z,19.99
2022-07-28T05:57:40.493Z,20.19
2022-07-28T06:00:09.836Z,20.01
2022-07-28T06:02:38.235Z,20.08
2022-07-28T06:05:08.410Z,20.07
2022-07-28T06:07:43.462Z,20.26
2022-07-28T06:10:12.820Z,20.76
2022-07-28T06:12:41.901Z,20.73
2022-07-28T06:15:14.796Z,20.95
2022-07-28T06:17:42.506Z,21.14
2022-07-28T06:20:13.327Z,20.79
2022-07-28T06:22:44.908Z,20.92
2022-07-28T06:25:16.548Z,20.46
2022-07-28T06:27:46.342Z,20.61
2022-07-28T06:30:14.615Z,20.61
2022-07-28T06:32:42.454Z,20.56
2022-07-28T06:35:12.075Z,20.67
2022-07-28T06:37:39.690Z,20.44
2022-07-28T06:40:08.945Z,20.72
2022-07-28T06:42:36.610Z,21.34
2022-07-28T06:45:05.205Z,20.61
2022-07-28T06:47:33.354Z,20.62
2022-07-28T06:50:01.096Z,20.79
2022-07-28T06:52:30.072Z,20.88
2022-07-28T06:54:58.366Z,20.96
2022-07-28T06:57:33.399Z,21.15
2022-07-28T07:00:02.521Z,21.45
2022-07-28T07:02:30.151Z,21.18
2022-07-28T07:04:57.765Z,21.83
2022-07-28T07:07:26.288Z,21.91
2022-07-28T07:09:55.236Z,22.44
2022-07-28T07:12:22.914Z,22.65
2022-07-28T07:14:50.587Z,22.33
2022-07-28T07:17:18.297Z,22.21
2022-07-28T07:19:45.919Z,22.12
2022-07-28T07:22:14.633Z,22.50
2022-07-28T07:24:42.475Z,22.32
2022-07-28T07:27:11.375Z,22.18
2022-07-28T07:29:39.008Z,22.10
2022-07-28T07:32:10.715Z,22.34
2022-07-28T07:34:40.397Z,22.47
2022-07-28T07:37:12.020Z,22.74
2022-07-28T07:39:39.605Z,22.64
2022-07-28T07:42:07.786Z,22.72
2022-07-28T07:44:36.723Z,22.60
2022-07-28T07:47:04.746Z,22.53
2022-07-28T07:49:45.594Z,22.74
2022-07-28T07:52:14.169Z,22.50
2022-07-28T07:54:42.136Z,23.12
2022-07-28T07:57:10.629Z,23.20
2022-07-28T07:59:39.594Z,23.93
2022-07-28T08:02:07.616Z,23.76
2022-07-28T08:04:37.093Z,23.93
2022-07-28T08:07:05.742Z,24.81
2022-07-28T08:09:33.671Z,23.20
2022-07-28T08:12:01.343Z,24.01
2022-07-28T08:14:29.259Z,24.91
2022-07-28T08:16:59.301Z,25.30
2022-07-28T08:19:27.467Z,25.01
2022-07-28T08:21:56.311Z,25.30
2022-07-28T08:24:32.606Z,25.79
2022-07-28T08:27:01.618Z,25.42
2022-07-28T08:29:29.121Z,25.81
2022-07-28T08:31:58.058Z,25.56
2022-07-28T08:34:29.908Z,25.84
2022-07-28T08:37:01.495Z,25.71
2022-07-28T08:39:29.000Z,25.84
2022-07-28T08:42:00.048Z,26.32
2022-07-28T08:44:29.463Z,26.45
2022-07-28T08:46:58.436Z,26.44
2022-07-28T08:49:26.159Z,26.97
2022-07-28T08:51:54.263Z,27.45
2022-07-28T08:54:23.672Z,27.01
2022-07-28T08:56:51.288Z,27.33
2022-07-28T08:59:18.968Z,26.28
2022-07-28T09:01:46.537Z,26.47
2022-07-28T09:04:15.912Z,26.59
2022-07-28T09:06:43.751Z,26.65
2022-07-28T09:09:11.321Z,26.69
2022-07-28T09:11:39.654Z,26.91
2022-07-28T09:14:07.194Z,27.17
2022-07-28T09:16:34.863Z,27.32
2022-07-28T09:19:02.344Z,27.80
2022-07-28T09:21:31.249Z,28.50
2022-07-28T09:23:58.901Z,28.39
2022-07-28T09:26:26.498Z,28.48
2022-07-28T09:28:55.795Z,27.15
2022-07-28T09:31:24.888Z,26.82
2022-07-28T09:33:57.697Z,27.25
2022-07-28T09:36:25.763Z,28.11
2022-07-28T09:38:56.532Z,28.27
2022-07-28T09:41:26.118Z,28.84
2022-07-28T09:43:55.774Z,28.45
2022-07-28T09:46:25.335Z,28.02
2022-07-28T09:48:59.044Z,27.72
2022-07-28T09:51:29.077Z,27.53
2022-07-28T09:54:08.977Z,28.04
2022-07-28T09:56:36.751Z,27.46
2022-07-28T09:59:04.621Z,27.64
2022-07-28T10:01:33.958Z,27.61
2022-07-28T10:04:05.203Z,27.98
2022-07-28T10:06:34.676Z,28.64
2022-07-28T10:09:05.441Z,29.37
2022-07-28T10:11:35.388Z,28.68
2022-07-28T10:14:08.079Z,28.71
2022-07-28T10:16:38.192Z,28.72
2022-07-28T10:19:06.805Z,28.97
2022-07-28T10:21:41.023Z,28.64
2022-07-28T10:24:15.268Z,28.60
2022-07-28T10:26:45.965Z,28.42
2022-07-28T10:29:16.234Z,28.32
2022-07-28T10:31:50.860Z,28.38
2022-07-28T10:34:24.937Z,28.47
2022-07-28T10:36:55.673Z,29.05
2022-07-28T10:39:29.751Z,29.04
2022-07-28T10:41:57.602Z,29.14
2022-07-28T10:44:26.030Z,29.06
2022-07-28T10:46:54.178Z,29.61
2022-07-28T10:49:22.109Z,29.26
2022-07-28T10:52:08.913Z,29.86
2022-07-28T10:54:50.505Z,30.19
2022-07-28T10:57:19.214Z,29.79
2022-07-28T11:00:13.403Z,31.06
2022-07-28T11:02:51.313Z,31.56
2022-07-28T11:05:27.261Z,31.23
2022-07-28T11:07:55.311Z,30.83
2022-07-28T11:10:25.271Z,30.43
2022-07-28T11:12:54.588Z,30.69
2022-07-28T11:15:28.106Z,30.60
2022-07-28T11:18:01.175Z,30.86
2022-07-28T11:21:07.927Z,31.64
2022-07-28T11:23:47.728Z,31.75
2022-07-28T11:26:37.139Z,31.53
2022-07-28T11:29:25.740Z,30.82
2022-07-28T11:32:17.154Z,30.77
2022-07-28T11:35:07.430Z,31.20
2022-07-28T11:38:12.048Z,30.71
2022-07-28T11:40:42.877Z,30.79
2022-07-28T11:43:36.775Z,29.79
2022-07-28T11:46:38.621Z,30.00
2022-07-28T11:49:25.017Z,30.66
2022-07-28T11:52:14.021Z,31.30
2022-07-28T11:54:44.529Z,30.72
2022-07-28T11:57:12.924Z,31.23
2022-07-28T11:59:49.750Z,31.49
2022-07-28T12:02:23.693Z,31.68
2022-07-28T12:05:12.659Z,31.62
2022-07-28T12:07:43.085Z,31.51
2022-07-28T12:11:00.415Z,31.29
2022-07-28T12:13:27.475Z,31.91
2022-07-28T12:15:56.581Z,32.40
2022-07-28T12:18:24.811Z,32.54
2022-07-28T12:20:54.592Z,32.38
2022-07-28T12:23:38.702Z,32.34
2022-07-28T12:26:13.535Z,32.82
2022-07-28T12:28:50.415Z,33.28
2022-07-28T12:31:19.511Z,33.53
2022-07-28T12:33:47.258Z,32.83
2022-07-28T12:36:18.868Z,33.02
2022-07-28T12:38:47.009Z,32.66
2022-07-28T12:41:16.043Z,32.47
2022-07-28T12:43:51.060Z,31.85
2022-07-28T12:46:25.040Z,31.61
2022-07-28T12:48:57.493Z,32.14
2022-07-28T12:51:36.495Z,32.67
2022-07-28T12:54:06.347Z,32.41
2022-07-28T12:56:45.618Z,32.12
2022-07-28T12:59:14.084Z,31.50
2022-07-28T13:01:51.315Z,31.06
2022-07-28T13:04:39.157Z,31.19
2022-07-28T13:07:10.050Z,31.31
2022-07-28T13:09:41.540Z,31.25
2022-07-28T13:12:20.052Z,31.65
2022-07-28T13:14:51.873Z,31.38
2022-07-28T13:17:22.055Z,31.43
2022-07-28T13:19:50.581Z,31.92
2022-07-28T13:22:26.637Z,31.28
2022-07-28T13:24:54.599Z,31.10
2022-07-28T13:27:22.247Z,31.06
2022-07-28T13:29:50.492Z,31.05
2022-07-28T13:32:18.307Z,30.62
2022-07-28T13:34:50.703Z,30.95
2022-07-28T13:37:18.935Z,30.68
2022-07-28T13:39:54.153Z,30.40
2022-07-28T13:42:23.620Z,30.66
2022-07-28T13:44:51.517Z,30.78
2022-07-28T13:47:19.136Z,30.35
2022-07-28T13:49:48.453Z,30.68
2022-07-28T13:52:32.666Z,30.77
2022-07-28T13:55:03.995Z,30.79
2022-07-28T13:57:32.213Z,30.84
2022-07-28T14:00:06.740Z,30.55
2022-07-28T14:02:35.804Z,30.79
2022-07-28T14:05:06.456Z,30.58
2022-07-28T14:07:34.326Z,30.62
2022-07-28T14:10:01.973Z,30.51
2022-07-28T14:12:30.248Z,30.51
2022-07-28T14:14:57.835Z,30.06
2022-07-28T14:17:43.510Z,30.45
2022-07-28T14:20:15.350Z,30.25
2022-07-28T14:22:43.703Z,30.28
2022-07-28T14:25:11.742Z,30.38
2022-07-28T14:27:47.133Z,30.56
2022-07-28T14:30:15.014Z,30.68
2022-07-28T14:32:42.680Z,29.98
2022-07-28T14:35:10.934Z,29.99
2022-07-28T14:38:23.213Z,29.98
2022-07-28T14:40:27.675Z,30.08
2022-07-28T14:42:55.425Z,30.00
2022-07-28T14:45:23.168Z,29.42
2022-07-28T14:47:50.775Z,29.55
2022-07-28T14:50:18.395Z,29.68
2022-07-28T14:52:47.508Z,29.84
2022-07-28T14:55:15.155Z,29.73
2022-07-28T14:57:52.083Z,29.63
2022-07-28T15:00:23.223Z,29.67
2022-07-28T15:02:51.691Z,29.91
2022-07-28T15:05:20.402Z,29.72
2022-07-28T15:07:51.862Z,29.88
2022-07-28T15:10:20.052Z,29.94
2022-07-28T15:12:47.893Z,30.09
2022-07-28T15:15:15.596Z,29.30
2022-07-28T15:17:43.390Z,29.63
2022-07-28T15:20:12.154Z,29.60
2022-07-28T15:22:39.772Z,30.09
2022-07-28T15:25:09.858Z,30.10
2022-07-28T15:27:41.619Z,30.16
2022-07-28T15:30:14.214Z,29.87
2022-07-28T15:32:56.384Z,29.88
2022-07-28T15:35:25.825Z,29.91
2022-07-28T15:37:53.444Z,30.24
2022-07-28T15:40:23.069Z,30.06
2022-07-28T15:42:51.224Z,30.19
2022-07-28T15:45:18.793Z,29.84
2022-07-28T15:47:46.356Z,30.17
2022-07-28T15:50:14.107Z,29.93
2022-07-28T15:52:41.761Z,30.17
2022-07-28T15:55:10.269Z,30.42
2022-07-28T15:57:39.622Z,30.33
2022-07-28T16:00:08.493Z,30.41
2022-07-28T16:02:36.709Z,30.25
2022-07-28T16:05:04.697Z,30.00
2022-07-28T16:07:35.053Z,30.10
2022-07-28T16:10:03.008Z,29.81
2022-07-28T16:12:31.009Z,29.61
2022-07-28T16:14:59.940Z,29.72
2022-07-28T16:17:27.626Z,29.50
2022-07-28T16:19:58.858Z,29.28
2022-07-28T16:22:30.199Z,29.43
2022-07-28T16:24:57.837Z,29.54
2022-07-28T16:27:25.593Z,29.26
2022-07-28T16:29:53.186Z,29.08
2022-07-28T16:32:22.116Z,29.20
2022-07-28T16:34:49.802Z,28.97
2022-07-28T16:37:19.543Z,28.96
2022-07-28T16:39:48.428Z,28.65
2022-07-28T16:42:16.828Z,28.77
2022-07-28T16:44:44.448Z,28.77
2022-07-28T16:47:15.350Z,28.59
2022-07-28T16:49:46.289Z,28.52
2022-07-28T16:52:14.721Z,28.29
2022-07-28T16:54:42.452Z,28.26
2022-07-28T16:57:10.154Z,28.13
2022-07-28T16:59:46.464Z,28.18
2022-07-28T17:02:16.983Z,28.24
2022-07-28T17:04:46.357Z,28.19
2022-07-28T17:07:14.353Z,28.35
2022-07-28T17:09:42.095Z,28.01
2022-07-28T17:12:10.122Z,28.25
2022-07-28T17:14:37.847Z,28.20
2022-07-28T17:17:06.326Z,28.21
2022-07-28T17:19:34.142Z,28.07
2022-07-28T17:22:06.845Z,27.98
2022-07-28T17:24:35.122Z,28.11
2022-07-28T17:27:36.691Z,27.96
2022-07-28T17:29:50.449Z,28.17
2022-07-28T17:32:18.340Z,27.92
2022-07-28T17:34:46.076Z,27.73
2022-07-28T17:37:15.363Z,27.75
2022-07-28T17:39:43.093Z,27.74
2022-07-28T17:42:10.862Z,27.61
2022-07-28T17:44:38.695Z,27.58
2022-07-28T17:47:07.468Z,27.52
2022-07-28T17:49:38.945Z,27.62
2022-07-28T17:52:09.787Z,27.34
2022-07-28T17:54:52.711Z,27.32
2022-07-28T17:57:21.939Z,27.37
2022-07-28T17:59:52.127Z,27.32
2022-07-28T18:02:20.030Z,27.23
2022-07-28T18:04:48.019Z,27.29
2022-07-28T18:07:17.061Z,27.03
2022-07-28T18:09:46.107Z,27.17
2022-07-28T18:12:13.818Z,27.16
2022-07-28T18:14:41.531Z,26.85
2022-07-28T18:17:09.486Z,26.98
2022-07-28T18:19:38.951Z,26.98
2022-07-28T18:22:09.860Z,26.83
2022-07-28T18:24:37.623Z,26.79
2022-07-28T18:27:07.051Z,26.65
2022-07-28T18:29:38.170Z,26.79
2022-07-28T18:32:07.838Z,26.56
2022-07-28T18:34:38.099Z,26.49
2022-07-28T18:37:05.751Z,26.44
2022-07-28T18:39:33.523Z,26.33
2022-07-28T18:42:01.283Z,26.18
2022-07-28T18:44:30.419Z,26.14
2022-07-28T18:46:59.535Z,26.16
2022-07-28T18:49:27.312Z,26.21
2022-07-28T18:51:55.118Z,25.97
2022-07-28T18:54:27.770Z,25.99
2022-07-28T18:56:56.032Z,25.95
2022-07-28T18:59:23.902Z,25.91
2022-07-28T19:01:53.142Z,26.05
2022-07-28T19:04:21.123Z,25.86
2022-07-28T19:06:48.898Z,25.84
2022-07-28T19:09:16.771Z,25.55
2022-07-28T19:11:46.432Z,25.59
2022-07-28T19:14:15.118Z,25.60
2022-07-28T19:16:43.619Z,25.53
2022-07-28T19:19:12.937Z,25.52
2022-07-28T19:21:43.274Z,25.39
2022-07-28T19:24:12.898Z,25.40
2022-07-28T19:26:41.901Z,25.34
2022-07-28T19:29:09.760Z,25.29
2022-07-28T19:31:37.518Z,25.11
2022-07-28T19:34:05.624Z,25.15
2022-07-28T19:36:34.770Z,25.14
2022-07-28T19:39:02.484Z,25.07
2022-07-28T19:41:31.594Z,25.13
2022-07-28T19:43:59.308Z,25.03
2022-07-28T19:46:27.123Z,25.04
2022-07-28T19:48:55.085Z,24.91
2022-07-28T19:51:22.915Z,25.05
2022-07-28T19:53:52.031Z,24.84
2022-07-28T19:56:20.403Z,24.81
2022-07-28T19:58:49.863Z,24.79
2022-07-28T20:01:18.818Z,24.70
2022-07-28T20:04:03.201Z,24.77
2022-07-28T20:06:33.219Z,24.72
2022-07-28T20:09:03.067Z,24.75
2022-07-28T20:11:32.675Z,24.71
2022-07-28T20:14:01.057Z,24.74
2022-07-28T20:16:28.822Z,24.75
2022-07-28T20:18:57.731Z,24.66
2022-07-28T20:21:26.161Z,24.67
2022-07-28T20:23:55.337Z,24.34
2022-07-28T20:26:26.051Z,24.34
2022-07-28T20:28:54.143Z,24.46
2022-07-28T20:31:21.963Z,24.43
2022-07-28T20:33:49.855Z,24.38
2022-07-28T20:36:17.848Z,24.29
2022-07-28T20:38:46.276Z,24.21
2022-07-28T20:41:14.094Z,24.24
2022-07-28T20:43:43.099Z,24.24
2022-07-28T20:46:10.799Z,24.15
2022-07-28T20:48:38.667Z,24.11
2022-07-28T20:51:06.541Z,24.07
2022-07-28T20:53:34.215Z,24.27
2022-07-28T20:56:01.859Z,24.13
2022-07-28T20:58:29.557Z,24.05
2022-07-28T21:00:59.292Z,24.13
2022-07-28T21:03:27.029Z,24.12
2022-07-28T21:05:54.719Z,23.92
2022-07-28T21:08:22.902Z,23.93
2022-07-28T21:10:51.562Z,23.99
2022-07-28T21:13:19.371Z,23.93
2022-07-28T21:15:47.012Z,23.85
2022-07-28T21:18:17.396Z,23.96
2022-07-28T21:20:45.050Z,24.01
2022-07-28T21:23:12.732Z,23.96
2022-07-28T21:25:40.398Z,23.97
2022-07-28T21:28:30.253Z,23.97
2022-07-28T21:30:57.882Z,23.89
2022-07-28T21:33:27.884Z,23.83
2022-07-28T21:35:55.706Z,23.85
2022-07-28T21:38:23.514Z,23.70
2022-07-28T21:40:51.490Z,23.87
2022-07-28T21:43:19.117Z,23.89
2022-07-28T21:45:48.054Z,23.69
2022-07-28T21:48:19.048Z,23.60
2022-07-28T21:50:48.056Z,23.65
2022-07-28T21:53:17.377Z,23.65
2022-07-28T21:55:45.627Z,23.79
2022-07-28T21:58:13.508Z,23.84
2022-07-28T22:00:41.304Z,23.82
2022-07-28T22:03:09.388Z,23.84
2022-07-28T22:05:37.086Z,23.84
2022-07-28T22:08:06.303Z,23.89
2022-07-28T22:10:33.973Z,23.89
2022-07-28T22:13:01.574Z,23.91
2022-07-28T22:15:29.523Z,23.87
2022-07-28T22:17:57.127Z,23.91
2022-07-28T22:20:24.786Z,23.85
2022-07-28T22:22:52.472Z,23.92
2022-07-28T22:25:21.446Z,23.88
2022-07-28T22:27:49.092Z,23.87
2022-07-28T22:30:16.995Z,23.82
2022-07-28T22:32:44.677Z,23.82
2022-07-28T22:35:12.554Z,23.73
2022-07-28T22:37:40.202Z,23.77
2022-07-28T22:40:08.934Z,23.68
2022-07-28T22:42:38.039Z,23.65
2022-07-28T22:45:06.458Z,23.61
2022-07-28T22:47:34.154Z,23.50
2022-07-28T22:50:02.016Z,23.39
2022-07-28T22:52:30.937Z,23.35
2022-07-28T22:54:58.669Z,23.29
2022-07-28T22:57:26.451Z,23.39
2022-07-28T22:59:56.281Z,23.41
2022-07-28T23:02:25.822Z,23.04
2022-07-28T23:04:53.975Z,23.04
2022-07-28T23:07:43.065Z,22.93
2022-07-28T23:10:11.127Z,22.89
2022-07-28T23:12:38.822Z,22.91
2022-07-28T23:15:09.244Z,22.80
2022-07-28T23:17:37.190Z,22.40
2022-07-28T23:20:06.001Z,22.02
2022-07-28T23:22:33.666Z,21.56
2022-07-28T23:25:01.508Z,21.38
2022-07-28T23:27:29.175Z,21.17
2022-07-28T23:29:56.853Z,21.17
2022-07-28T23:32:25.907Z,21.04
2022-07-28T23:34:53.613Z,20.97
2022-07-28T23:37:21.236Z,20.97
2022-07-28T23:39:49.596Z,21.07
2022-07-28T23:42:17.378Z,21.23
2022-07-28T23:44:45.132Z,21.09
2022-07-28T23:47:12.786Z,21.02
2022-07-28T23:49:41.918Z,21.02
2022-07-28T23:52:09.695Z,20.99
2022-07-28T23:54:37.358Z,20.95
2022-07-28T23:57:05.263Z,20.91
2022-07-28T23:59:32.852Z,20.93
